Manter, KS (67862)

11:27 AM CDT on May 29, 2015 (GMT -0500)
8S of Johnson | | Change Station
CLOSE
Current Station
Personal Weather Station
Location: Johnson City, KS
Elevation: 3369 ft
Nearby Weather Stations

Elev 3369 ft 37.45 °N, 101.76 °W | Updated 19 seconds ago

Clear
Clear
70.2 °F
Feels Like 76 °F
N
12.1
Wind Variable Wind from NNE
Gusts 24.0 mph

Today
High -- | Low -- °F
--% Chance of Precip.
Yesterday
High -- | Low -- °F
Precip. -- in
6:29 AM 9:00 PM
Waxing Gibbous, 84% visible
Pressure 30.01 in
Visibility 9.0 miles
Clouds Clear
Heat Index 76 °F
Dew Point 55 °F
Humidity 58%
Rainfall 0.00 in
Snow Depth Not available.
UV 12.0 out of 12
Pollen 4.40 out of 12
Air Quality Not available.
Flu Activity No Activity
METAR KLAA 291553Z AUTO 05009KT 9SM CLR 20/11 A3010 RMK AO2 SLP160 T02000111 TSNO

More Conditions Fewer Conditions

Pressure 30.01 in
Visibility 9.0 miles
Clouds Clear
Heat Index 76 °F
Dew Point 55 °F
Humidity 58%
Rainfall 0.00 in
Snow Depth Not available.
UV 12.0 out of 12
Pollen 4.40 out of 12
Air Quality Not available.
Flu Activity No Activity
METAR KLAA 291553Z AUTO 05009KT 9SM CLR 20/11 A3010 RMK AO2 SLP160 T02000111 TSNO

More Conditions Fewer Conditions

10-Day Weather Forecast

Almanac

Astronomy

May. 29, 2015 Rise Set
Actual Time
Civil Twilight
Nautical Twilight
Astronomical Twilight
Moon
Length of Visible Light
Length of Day
Tomorrow will be .
, % of the Moon is Illuminated

Today's Extremes

State Highs State Lows

Community

WunderPhotos

Upload Photos

1,825,300 photos uploaded!

WunderBlogs® & News

Nearby

Air Quality

  Air Quality AQ Index Pollutant
Not available.

Snow Depth

Station Depth Elevation

Earthquake Activity

City Distance Mag. Time & Date
Minimum magnitude displayed is 2.5.

Coastal Water Temperatures

Place Temperature

Stations

Nearby Weather Stations

Station Location Temp. Windchill Dew Point Humidity Wind Precip. Elev Updated Type